sensor_id;sensor_type;location;lat;lon;timestamp;P1;durP1;ratioP1;P2;durP2;ratioP2
46753;SDS011;32500;50.620;3.400;2023-08-24T00:02:05;115.15;;;57.90;;
46753;SDS011;32500;50.620;3.400;2023-08-24T00:04:31;112.18;;;57.85;;
46753;SDS011;32500;50.620;3.400;2023-08-24T00:06:59;112.22;;;57.90;;
46753;SDS011;32500;50.620;3.400;2023-08-24T00:09:24;111.75;;;57.88;;
46753;SDS011;32500;50.620;3.400;2023-08-24T00:11:50;110.05;;;57.50;;
46753;SDS011;32500;50.620;3.400;2023-08-24T00:14:16;111.22;;;57.55;;
46753;SDS011;32500;50.620;3.400;2023-08-24T00:16:42;112.05;;;57.65;;
46753;SDS011;32500;50.620;3.400;2023-08-24T00:19:08;111.13;;;57.15;;
46753;SDS011;32500;50.620;3.400;2023-08-24T00:21:33;111.65;;;57.78;;
46753;SDS011;32500;50.620;3.400;2023-08-24T00:23:59;112.53;;;58.75;;
46753;SDS011;32500;50.620;3.400;2023-08-24T00:26:25;111.68;;;58.15;;
46753;SDS011;32500;50.620;3.400;2023-08-24T00:28:50;110.43;;;57.17;;
46753;SDS011;32500;50.620;3.400;2023-08-24T00:31:16;111.53;;;57.72;;
46753;SDS011;32500;50.620;3.400;2023-08-24T00:33:42;110.82;;;57.50;;
46753;SDS011;32500;50.620;3.400;2023-08-24T00:36:08;112.03;;;57.55;;
46753;SDS011;32500;50.620;3.400;2023-08-24T00:38:34;110.57;;;57.55;;
46753;SDS011;32500;50.620;3.400;2023-08-24T00:40:59;111.97;;;57.45;;
46753;SDS011;32500;50.620;3.400;2023-08-24T00:43:26;111.57;;;57.38;;
46753;SDS011;32500;50.620;3.400;2023-08-24T00:45:52;111.65;;;57.33;;
46753;SDS011;32500;50.620;3.400;2023-08-24T00:48:21;110.43;;;57.67;;
46753;SDS011;32500;50.620;3.400;2023-08-24T00:51:00;110.68;;;57.58;;
46753;SDS011;32500;50.620;3.400;2023-08-24T00:53:26;111.47;;;58.13;;
46753;SDS011;32500;50.620;3.400;2023-08-24T00:55:54;111.10;;;57.58;;
46753;SDS011;32500;50.620;3.400;2023-08-24T00:58:20;110.38;;;57.50;;
46753;SDS011;32500;50.620;3.400;2023-08-24T01:00:46;110.13;;;57.30;;
46753;SDS011;32500;50.620;3.400;2023-08-24T01:03:22;112.18;;;57.42;;
46753;SDS011;32500;50.620;3.400;2023-08-24T01:05:48;110.55;;;57.75;;
46753;SDS011;32500;50.620;3.400;2023-08-24T01:08:14;111.18;;;57.78;;
46753;SDS011;32500;50.620;3.400;2023-08-24T01:16:39;111.55;;;58.13;;
46753;SDS011;32500;50.620;3.400;2023-08-24T01:21:45;111.55;;;57.20;;
46753;SDS011;32500;50.620;3.400;2023-08-24T01:24:12;111.88;;;57.53;;
46753;SDS011;32500;50.620;3.400;2023-08-24T01:26:42;110.20;;;57.42;;
46753;SDS011;32500;50.620;3.400;2023-08-24T01:29:09;111.60;;;57.50;;
46753;SDS011;32500;50.620;3.400;2023-08-24T01:31:35;110.10;;;57.33;;
46753;SDS011;32500;50.620;3.400;2023-08-24T01:34:01;113.03;;;58.15;;
46753;SDS011;32500;50.620;3.400;2023-08-24T01:36:26;111.68;;;57.85;;
46753;SDS011;32500;50.620;3.400;2023-08-24T01:39:06;110.82;;;57.75;;
46753;SDS011;32500;50.620;3.400;2023-08-24T01:41:37;110.45;;;57.78;;
46753;SDS011;32500;50.620;3.400;2023-08-24T01:44:04;110.85;;;57.38;;
46753;SDS011;32500;50.620;3.400;2023-08-24T01:46:32;112.50;;;57.58;;
46753;SDS011;32500;50.620;3.400;2023-08-24T01:48:59;113.07;;;57.47;;
46753;SDS011;32500;50.620;3.400;2023-08-24T01:51:25;113.32;;;57.95;;
46753;SDS011;32500;50.620;3.400;2023-08-24T01:53:52;111.57;;;58.03;;
46753;SDS011;32500;50.620;3.400;2023-08-24T01:56:18;111.47;;;57.88;;
46753;SDS011;32500;50.620;3.400;2023-08-24T01:58:43;110.15;;;57.50;;
46753;SDS011;32500;50.620;3.400;2023-08-24T02:01:09;111.30;;;57.90;;
46753;SDS011;32500;50.620;3.400;2023-08-24T02:03:35;110.13;;;57.50;;
46753;SDS011;32500;50.620;3.400;2023-08-24T02:06:01;110.82;;;57.78;;
46753;SDS011;32500;50.620;3.400;2023-08-24T02:08:27;111.50;;;57.55;;
46753;SDS011;32500;50.620;3.400;2023-08-24T02:10:53;112.85;;;58.05;;
46753;SDS011;32500;50.620;3.400;2023-08-24T02:13:18;111.07;;;58.00;;
46753;SDS011;32500;50.620;3.400;2023-08-24T02:15:44;110.78;;;57.65;;
46753;SDS011;32500;50.620;3.400;2023-08-24T02:18:09;113.32;;;58.22;;
46753;SDS011;32500;50.620;3.400;2023-08-24T02:20:35;111.90;;;57.50;;
46753;SDS011;32500;50.620;3.400;2023-08-24T02:23:02;110.65;;;57.80;;
46753;SDS011;32500;50.620;3.400;2023-08-24T02:25:28;112.05;;;58.47;;
46753;SDS011;32500;50.620;3.400;2023-08-24T02:27:54;111.43;;;57.90;;
46753;SDS011;32500;50.620;3.400;2023-08-24T02:30:20;112.30;;;57.70;;
46753;SDS011;32500;50.620;3.400;2023-08-24T02:32:45;109.90;;;57.58;;
46753;SDS011;32500;50.620;3.400;2023-08-24T02:35:11;110.43;;;57.65;;
46753;SDS011;32500;50.620;3.400;2023-08-24T02:37:37;110.20;;;57.83;;
46753;SDS011;32500;50.620;3.400;2023-08-24T02:40:02;110.43;;;57.67;;
46753;SDS011;32500;50.620;3.400;2023-08-24T02:42:31;110.68;;;57.35;;
46753;SDS011;32500;50.620;3.400;2023-08-24T02:44:58;111.22;;;57.85;;
46753;SDS011;32500;50.620;3.400;2023-08-24T02:47:23;111.28;;;57.92;;
46753;SDS011;32500;50.620;3.400;2023-08-24T02:49:49;111.82;;;58.42;;
46753;SDS011;32500;50.620;3.400;2023-08-24T02:52:15;112.05;;;58.17;;
46753;SDS011;32500;50.620;3.400;2023-08-24T02:54:40;112.18;;;57.70;;
46753;SDS011;32500;50.620;3.400;2023-08-24T02:57:06;111.50;;;57.67;;
46753;SDS011;32500;50.620;3.400;2023-08-24T02:59:31;111.70;;;57.92;;
46753;SDS011;32500;50.620;3.400;2023-08-24T03:01:57;112.22;;;58.33;;
46753;SDS011;32500;50.620;3.400;2023-08-24T03:04:23;111.63;;;58.03;;
46753;SDS011;32500;50.620;3.400;2023-08-24T03:06:48;112.90;;;58.85;;
46753;SDS011;32500;50.620;3.400;2023-08-24T03:09:14;110.47;;;57.25;;
46753;SDS011;32500;50.620;3.400;2023-08-24T03:11:40;112.63;;;58.47;;
46753;SDS011;32500;50.620;3.400;2023-08-24T03:14:06;113.30;;;57.97;;
46753;SDS011;32500;50.620;3.400;2023-08-24T03:16:32;111.45;;;58.08;;
46753;SDS011;32500;50.620;3.400;2023-08-24T03:18:57;110.63;;;57.65;;
46753;SDS011;32500;50.620;3.400;2023-08-24T03:21:23;110.57;;;57.75;;
46753;SDS011;32500;50.620;3.400;2023-08-24T03:23:49;113.28;;;57.80;;
46753;SDS011;32500;50.620;3.400;2023-08-24T03:26:14;113.03;;;58.40;;
46753;SDS011;32500;50.620;3.400;2023-08-24T03:28:41;110.95;;;57.90;;
46753;SDS011;32500;50.620;3.400;2023-08-24T03:31:07;111.70;;;58.28;;
46753;SDS011;32500;50.620;3.400;2023-08-24T03:33:33;110.88;;;57.90;;
46753;SDS011;32500;50.620;3.400;2023-08-24T03:35:59;110.68;;;57.75;;
46753;SDS011;32500;50.620;3.400;2023-08-24T03:38:26;112.75;;;57.97;;
46753;SDS011;32500;50.620;3.400;2023-08-24T03:40:59;111.88;;;57.42;;
46753;SDS011;32500;50.620;3.400;2023-08-24T03:43:25;109.85;;;57.63;;
46753;SDS011;32500;50.620;3.400;2023-08-24T03:45:51;113.30;;;57.97;;
46753;SDS011;32500;50.620;3.400;2023-08-24T03:48:17;111.22;;;58.25;;
46753;SDS011;32500;50.620;3.400;2023-08-24T03:50:43;112.57;;;57.88;;
46753;SDS011;32500;50.620;3.400;2023-08-24T03:53:08;110.53;;;57.30;;
46753;SDS011;32500;50.620;3.400;2023-08-24T03:55:34;110.93;;;57.42;;
46753;SDS011;32500;50.620;3.400;2023-08-24T03:58:00;111.07;;;57.92;;
46753;SDS011;32500;50.620;3.400;2023-08-24T04:00:25;111.53;;;57.90;;
46753;SDS011;32500;50.620;3.400;2023-08-24T04:02:51;112.80;;;57.55;;
46753;SDS011;32500;50.620;3.400;2023-08-24T04:05:17;110.78;;;57.75;;
46753;SDS011;32500;50.620;3.400;2023-08-24T04:07:42;113.18;;;57.75;;
46753;SDS011;32500;50.620;3.400;2023-08-24T04:10:08;109.45;;;57.15;;
46753;SDS011;32500;50.620;3.400;2023-08-24T04:12:34;111.07;;;57.95;;
46753;SDS011;32500;50.620;3.400;2023-08-24T04:15:00;110.15;;;57.63;;
46753;SDS011;32500;50.620;3.400;2023-08-24T04:17:26;110.85;;;57.80;;
46753;SDS011;32500;50.620;3.400;2023-08-24T04:19:52;112.97;;;57.97;;
46753;SDS011;32500;50.620;3.400;2023-08-24T04:22:17;110.78;;;58.00;;
46753;SDS011;32500;50.620;3.400;2023-08-24T04:24:43;110.38;;;57.65;;
46753;SDS011;32500;50.620;3.400;2023-08-24T04:27:09;110.68;;;57.55;;
46753;SDS011;32500;50.620;3.400;2023-08-24T04:29:34;110.45;;;58.10;;
46753;SDS011;32500;50.620;3.400;2023-08-24T04:32:00;109.50;;;57.28;;
46753;SDS011;32500;50.620;3.400;2023-08-24T04:34:25;111.78;;;58.05;;
46753;SDS011;32500;50.620;3.400;2023-08-24T04:36:51;111.75;;;58.17;;
46753;SDS011;32500;50.620;3.400;2023-08-24T04:39:17;109.95;;;57.85;;
46753;SDS011;32500;50.620;3.400;2023-08-24T04:41:43;109.45;;;57.28;;
46753;SDS011;32500;50.620;3.400;2023-08-24T04:44:09;110.38;;;57.08;;
46753;SDS011;32500;50.620;3.400;2023-08-24T04:46:35;110.05;;;57.42;;
46753;SDS011;32500;50.620;3.400;2023-08-24T04:49:00;110.97;;;57.40;;
46753;SDS011;32500;50.620;3.400;2023-08-24T04:51:26;110.68;;;58.08;;
46753;SDS011;32500;50.620;3.400;2023-08-24T04:53:53;109.93;;;57.67;;
46753;SDS011;32500;50.620;3.400;2023-08-24T04:56:18;109.82;;;57.03;;
46753;SDS011;32500;50.620;3.400;2023-08-24T04:58:57;110.40;;;57.50;;
46753;SDS011;32500;50.620;3.400;2023-08-24T05:01:23;110.78;;;58.25;;
46753;SDS011;32500;50.620;3.400;2023-08-24T05:03:50;110.80;;;57.95;;
46753;SDS011;32500;50.620;3.400;2023-08-24T05:06:17;110.93;;;57.40;;
46753;SDS011;32500;50.620;3.400;2023-08-24T05:08:43;110.15;;;57.58;;
46753;SDS011;32500;50.620;3.400;2023-08-24T05:11:16;110.10;;;57.72;;
46753;SDS011;32500;50.620;3.400;2023-08-24T05:13:43;110.38;;;57.22;;
46753;SDS011;32500;50.620;3.400;2023-08-24T05:16:10;110.40;;;57.90;;
46753;SDS011;32500;50.620;3.400;2023-08-24T05:18:38;111.60;;;57.78;;
46753;SDS011;32500;50.620;3.400;2023-08-24T05:21:05;110.13;;;57.45;;
46753;SDS011;32500;50.620;3.400;2023-08-24T05:23:31;111.32;;;57.72;;
46753;SDS011;32500;50.620;3.400;2023-08-24T05:25:57;110.10;;;57.22;;
46753;SDS011;32500;50.620;3.400;2023-08-24T05:28:27;110.20;;;56.95;;
46753;SDS011;32500;50.620;3.400;2023-08-24T05:30:53;109.63;;;57.58;;
46753;SDS011;32500;50.620;3.400;2023-08-24T05:33:20;110.32;;;57.25;;
46753;SDS011;32500;50.620;3.400;2023-08-24T05:35:46;109.97;;;57.80;;
46753;SDS011;32500;50.620;3.400;2023-08-24T05:38:13;110.32;;;57.80;;
46753;SDS011;32500;50.620;3.400;2023-08-24T05:40:42;108.75;;;56.85;;
46753;SDS011;32500;50.620;3.400;2023-08-24T05:43:09;110.40;;;57.65;;
46753;SDS011;32500;50.620;3.400;2023-08-24T05:45:35;111.40;;;57.53;;
46753;SDS011;32500;50.620;3.400;2023-08-24T05:48:01;109.63;;;57.25;;
46753;SDS011;32500;50.620;3.400;2023-08-24T05:50:26;113.45;;;60.47;;
46753;SDS011;32500;50.620;3.400;2023-08-24T05:52:52;113.78;;;59.97;;
46753;SDS011;32500;50.620;3.400;2023-08-24T05:55:18;115.07;;;61.42;;
46753;SDS011;32500;50.620;3.400;2023-08-24T05:57:43;117.55;;;60.65;;
46753;SDS011;32500;50.620;3.400;2023-08-24T06:00:09;114.18;;;60.17;;
46753;SDS011;32500;50.620;3.400;2023-08-24T06:02:36;114.20;;;61.50;;
46753;SDS011;32500;50.620;3.400;2023-08-24T06:05:02;115.25;;;61.80;;
46753;SDS011;32500;50.620;3.400;2023-08-24T06:07:28;114.80;;;60.17;;
46753;SDS011;32500;50.620;3.400;2023-08-24T06:09:54;118.00;;;61.65;;
46753;SDS011;32500;50.620;3.400;2023-08-24T06:12:21;118.97;;;61.25;;
46753;SDS011;32500;50.620;3.400;2023-08-24T06:14:47;116.75;;;59.83;;
46753;SDS011;32500;50.620;3.400;2023-08-24T06:17:12;117.10;;;61.85;;
46753;SDS011;32500;50.620;3.400;2023-08-24T06:19:38;118.28;;;62.35;;
46753;SDS011;32500;50.620;3.400;2023-08-24T06:22:04;116.38;;;61.92;;
46753;SDS011;32500;50.620;3.400;2023-08-24T06:24:29;120.90;;;61.67;;
46753;SDS011;32500;50.620;3.400;2023-08-24T06:26:55;120.35;;;61.72;;
46753;SDS011;32500;50.620;3.400;2023-08-24T06:29:21;119.38;;;62.05;;
46753;SDS011;32500;50.620;3.400;2023-08-24T06:31:46;122.35;;;62.30;;
46753;SDS011;32500;50.620;3.400;2023-08-24T06:34:12;119.47;;;61.55;;
46753;SDS011;32500;50.620;3.400;2023-08-24T06:36:37;122.72;;;61.17;;
46753;SDS011;32500;50.620;3.400;2023-08-24T06:39:03;120.13;;;61.22;;
46753;SDS011;32500;50.620;3.400;2023-08-24T06:41:32;117.28;;;61.60;;
46753;SDS011;32500;50.620;3.400;2023-08-24T06:44:01;116.82;;;62.05;;
46753;SDS011;32500;50.620;3.400;2023-08-24T06:46:27;119.65;;;61.60;;
46753;SDS011;32500;50.620;3.400;2023-08-24T06:48:54;119.10;;;62.00;;
46753;SDS011;32500;50.620;3.400;2023-08-24T06:51:19;122.53;;;62.20;;
46753;SDS011;32500;50.620;3.400;2023-08-24T06:53:45;120.70;;;62.63;;
46753;SDS011;32500;50.620;3.400;2023-08-24T06:56:13;118.55;;;62.30;;
46753;SDS011;32500;50.620;3.400;2023-08-24T06:58:40;123.50;;;62.88;;
46753;SDS011;32500;50.620;3.400;2023-08-24T07:01:05;124.03;;;63.05;;
46753;SDS011;32500;50.620;3.400;2023-08-24T07:03:32;119.93;;;62.97;;
46753;SDS011;32500;50.620;3.400;2023-08-24T07:05:58;126.57;;;61.90;;
46753;SDS011;32500;50.620;3.400;2023-08-24T07:08:24;127.13;;;62.03;;
46753;SDS011;32500;50.620;3.400;2023-08-24T07:10:50;126.57;;;63.25;;
46753;SDS011;32500;50.620;3.400;2023-08-24T07:13:15;126.88;;;62.90;;
46753;SDS011;32500;50.620;3.400;2023-08-24T07:15:41;120.55;;;62.25;;
46753;SDS011;32500;50.620;3.400;2023-08-24T07:18:07;120.70;;;62.72;;
46753;SDS011;32500;50.620;3.400;2023-08-24T07:20:34;125.53;;;62.88;;
46753;SDS011;32500;50.620;3.400;2023-08-24T07:23:00;118.05;;;63.05;;
46753;SDS011;32500;50.620;3.400;2023-08-24T07:25:26;119.85;;;62.25;;
46753;SDS011;32500;50.620;3.400;2023-08-24T07:27:53;128.25;;;63.67;;
46753;SDS011;32500;50.620;3.400;2023-08-24T07:30:23;125.27;;;63.00;;
46753;SDS011;32500;50.620;3.400;2023-08-24T07:32:52;125.10;;;63.25;;
46753;SDS011;32500;50.620;3.400;2023-08-24T07:35:20;123.75;;;63.97;;
46753;SDS011;32500;50.620;3.400;2023-08-24T07:37:49;119.55;;;62.38;;
46753;SDS011;32500;50.620;3.400;2023-08-24T07:40:15;125.40;;;63.22;;
46753;SDS011;32500;50.620;3.400;2023-08-24T07:42:45;121.72;;;63.03;;
46753;SDS011;32500;50.620;3.400;2023-08-24T07:45:12;121.27;;;62.87;;
46753;SDS011;32500;50.620;3.400;2023-08-24T07:47:39;125.75;;;63.60;;
46753;SDS011;32500;50.620;3.400;2023-08-24T07:50:05;125.00;;;63.80;;
46753;SDS011;32500;50.620;3.400;2023-08-24T07:52:32;125.13;;;64.00;;
46753;SDS011;32500;50.620;3.400;2023-08-24T07:54:57;122.43;;;62.88;;
46753;SDS011;32500;50.620;3.400;2023-08-24T07:57:25;124.15;;;64.10;;
46753;SDS011;32500;50.620;3.400;2023-08-24T07:59:54;120.60;;;63.55;;
46753;SDS011;32500;50.620;3.400;2023-08-24T08:02:19;122.28;;;63.72;;
46753;SDS011;32500;50.620;3.400;2023-08-24T08:04:45;125.72;;;62.38;;
46753;SDS011;32500;50.620;3.400;2023-08-24T08:07:11;121.38;;;62.88;;
46753;SDS011;32500;50.620;3.400;2023-08-24T08:09:37;125.18;;;63.67;;
46753;SDS011;32500;50.620;3.400;2023-08-24T08:12:03;122.03;;;64.45;;
46753;SDS011;32500;50.620;3.400;2023-08-24T08:14:29;121.82;;;62.85;;
46753;SDS011;32500;50.620;3.400;2023-08-24T08:16:55;121.55;;;63.95;;
46753;SDS011;32500;50.620;3.400;2023-08-24T08:19:21;123.78;;;62.58;;
46753;SDS011;32500;50.620;3.400;2023-08-24T08:21:50;119.30;;;61.47;;
46753;SDS011;32500;50.620;3.400;2023-08-24T08:24:16;120.60;;;62.30;;
46753;SDS011;32500;50.620;3.400;2023-08-24T08:26:41;117.10;;;61.75;;
46753;SDS011;32500;50.620;3.400;2023-08-24T08:29:07;119.80;;;62.58;;
46753;SDS011;32500;50.620;3.400;2023-08-24T08:31:32;117.85;;;61.63;;
46753;SDS011;32500;50.620;3.400;2023-08-24T08:33:58;121.15;;;62.15;;
46753;SDS011;32500;50.620;3.400;2023-08-24T08:36:24;117.85;;;62.10;;
46753;SDS011;32500;50.620;3.400;2023-08-24T08:38:49;118.40;;;61.45;;
46753;SDS011;32500;50.620;3.400;2023-08-24T08:41:15;118.70;;;62.55;;
46753;SDS011;32500;50.620;3.400;2023-08-24T08:43:46;122.40;;;61.97;;
46753;SDS011;32500;50.620;3.400;2023-08-24T08:46:12;119.68;;;62.15;;
46753;SDS011;32500;50.620;3.400;2023-08-24T08:48:40;120.85;;;61.80;;
46753;SDS011;32500;50.620;3.400;2023-08-24T08:51:07;121.25;;;61.28;;
46753;SDS011;32500;50.620;3.400;2023-08-24T08:53:34;119.53;;;62.28;;
46753;SDS011;32500;50.620;3.400;2023-08-24T08:56:00;122.75;;;62.55;;
46753;SDS011;32500;50.620;3.400;2023-08-24T08:58:29;123.05;;;62.28;;
46753;SDS011;32500;50.620;3.400;2023-08-24T09:00:56;117.60;;;61.63;;
46753;SDS011;32500;50.620;3.400;2023-08-24T09:03:25;119.47;;;62.40;;
46753;SDS011;32500;50.620;3.400;2023-08-24T09:05:52;115.97;;;60.05;;
46753;SDS011;32500;50.620;3.400;2023-08-24T09:08:18;121.20;;;62.05;;
46753;SDS011;32500;50.620;3.400;2023-08-24T09:10:44;117.35;;;61.00;;
46753;SDS011;32500;50.620;3.400;2023-08-24T09:13:09;115.82;;;59.63;;
46753;SDS011;32500;50.620;3.400;2023-08-24T09:15:35;115.88;;;59.75;;
46753;SDS011;32500;50.620;3.400;2023-08-24T09:18:04;115.38;;;60.40;;
46753;SDS011;32500;50.620;3.400;2023-08-24T09:20:30;114.97;;;59.58;;
46753;SDS011;32500;50.620;3.400;2023-08-24T09:22:56;117.20;;;59.55;;
46753;SDS011;32500;50.620;3.400;2023-08-24T09:25:25;115.10;;;59.47;;
46753;SDS011;32500;50.620;3.400;2023-08-24T09:28:01;116.10;;;59.13;;
46753;SDS011;32500;50.620;3.400;2023-08-24T09:30:31;113.03;;;58.83;;
46753;SDS011;32500;50.620;3.400;2023-08-24T09:33:09;113.43;;;58.28;;
46753;SDS011;32500;50.620;3.400;2023-08-24T09:35:36;112.57;;;58.28;;
46753;SDS011;32500;50.620;3.400;2023-08-24T09:38:35;124.38;;;60.40;;
46753;SDS011;32500;50.620;3.400;2023-08-24T09:40:54;123.22;;;59.30;;
46753;SDS011;32500;50.620;3.400;2023-08-24T09:43:21;120.55;;;59.72;;
46753;SDS011;32500;50.620;3.400;2023-08-24T09:45:51;119.18;;;59.40;;
46753;SDS011;32500;50.620;3.400;2023-08-24T09:48:17;116.13;;;59.00;;
46753;SDS011;32500;50.620;3.400;2023-08-24T09:50:44;114.85;;;59.00;;
46753;SDS011;32500;50.620;3.400;2023-08-24T09:53:21;113.45;;;58.92;;
46753;SDS011;32500;50.620;3.400;2023-08-24T09:58:33;117.38;;;58.67;;
46753;SDS011;32500;50.620;3.400;2023-08-24T10:00:59;115.38;;;58.83;;
46753;SDS011;32500;50.620;3.400;2023-08-24T10:03:27;115.25;;;58.03;;
46753;SDS011;32500;50.620;3.400;2023-08-24T10:05:57;114.40;;;58.83;;
46753;SDS011;32500;50.620;3.400;2023-08-24T10:08:26;113.90;;;58.53;;
46753;SDS011;32500;50.620;3.400;2023-08-24T10:10:55;113.15;;;58.90;;
46753;SDS011;32500;50.620;3.400;2023-08-24T10:13:24;116.60;;;58.95;;
46753;SDS011;32500;50.620;3.400;2023-08-24T10:16:12;113.72;;;58.63;;
46753;SDS011;32500;50.620;3.400;2023-08-24T10:18:40;114.82;;;58.72;;
46753;SDS011;32500;50.620;3.400;2023-08-24T10:21:06;121.28;;;60.08;;
46753;SDS011;32500;50.620;3.400;2023-08-24T10:23:34;149.73;;;64.53;;
46753;SDS011;32500;50.620;3.400;2023-08-24T10:26:02;143.73;;;63.88;;
46753;SDS011;32500;50.620;3.400;2023-08-24T10:28:28;128.50;;;61.47;;
46753;SDS011;32500;50.620;3.400;2023-08-24T10:30:57;120.93;;;60.03;;
46753;SDS011;32500;50.620;3.400;2023-08-24T10:33:24;122.18;;;60.38;;
46753;SDS011;32500;50.620;3.400;2023-08-24T10:35:51;121.38;;;60.20;;
46753;SDS011;32500;50.620;3.400;2023-08-24T10:38:27;120.53;;;59.85;;
46753;SDS011;32500;50.620;3.400;2023-08-24T10:40:54;115.90;;;59.67;;
46753;SDS011;32500;50.620;3.400;2023-08-24T10:43:25;115.88;;;59.28;;
46753;SDS011;32500;50.620;3.400;2023-08-24T10:46:00;118.15;;;59.50;;
46753;SDS011;32500;50.620;3.400;2023-08-24T10:48:31;114.88;;;59.60;;
46753;SDS011;32500;50.620;3.400;2023-08-24T10:51:17;118.13;;;60.28;;
46753;SDS011;32500;50.620;3.400;2023-08-24T10:53:47;116.28;;;59.75;;
46753;SDS011;32500;50.620;3.400;2023-08-24T10:56:17;114.03;;;59.55;;
46753;SDS011;32500;50.620;3.400;2023-08-24T10:58:44;114.88;;;59.17;;
46753;SDS011;32500;50.620;3.400;2023-08-24T11:01:19;117.43;;;59.53;;
46753;SDS011;32500;50.620;3.400;2023-08-24T11:03:49;115.18;;;59.38;;
46753;SDS011;32500;50.620;3.400;2023-08-24T11:06:22;116.82;;;59.25;;
46753;SDS011;32500;50.620;3.400;2023-08-24T11:08:49;118.55;;;59.20;;
46753;SDS011;32500;50.620;3.400;2023-08-24T11:11:32;118.97;;;59.70;;
46753;SDS011;32500;50.620;3.400;2023-08-24T11:14:13;115.63;;;59.35;;
46753;SDS011;32500;50.620;3.400;2023-08-24T11:16:46;115.53;;;59.42;;
46753;SDS011;32500;50.620;3.400;2023-08-24T11:19:13;116.05;;;59.50;;
46753;SDS011;32500;50.620;3.400;2023-08-24T11:21:41;114.80;;;60.10;;
46753;SDS011;32500;50.620;3.400;2023-08-24T11:24:14;114.20;;;59.50;;
46753;SDS011;32500;50.620;3.400;2023-08-24T11:26:44;114.05;;;59.75;;
46753;SDS011;32500;50.620;3.400;2023-08-24T11:29:11;114.00;;;59.73;;
46753;SDS011;32500;50.620;3.400;2023-08-24T11:31:37;113.60;;;59.92;;
46753;SDS011;32500;50.620;3.400;2023-08-24T11:34:03;113.70;;;59.50;;
46753;SDS011;32500;50.620;3.400;2023-08-24T11:36:30;115.63;;;59.30;;
46753;SDS011;32500;50.620;3.400;2023-08-24T11:38:59;114.20;;;59.97;;
46753;SDS011;32500;50.620;3.400;2023-08-24T11:41:25;114.57;;;59.88;;
46753;SDS011;32500;50.620;3.400;2023-08-24T11:43:58;113.72;;;59.97;;
46753;SDS011;32500;50.620;3.400;2023-08-24T11:46:27;113.43;;;59.30;;
46753;SDS011;32500;50.620;3.400;2023-08-24T11:48:54;115.50;;;59.67;;
46753;SDS011;32500;50.620;3.400;2023-08-24T11:51:20;113.68;;;59.40;;
46753;SDS011;32500;50.620;3.400;2023-08-24T11:53:46;117.13;;;59.72;;
46753;SDS011;32500;50.620;3.400;2023-08-24T11:56:12;113.95;;;59.45;;
46753;SDS011;32500;50.620;3.400;2023-08-24T11:58:39;114.68;;;59.67;;
46753;SDS011;32500;50.620;3.400;2023-08-24T12:01:05;113.82;;;59.55;;
46753;SDS011;32500;50.620;3.400;2023-08-24T12:03:32;114.03;;;59.33;;
46753;SDS011;32500;50.620;3.400;2023-08-24T12:06:01;114.57;;;58.85;;
46753;SDS011;32500;50.620;3.400;2023-08-24T12:08:37;115.82;;;59.47;;
46753;SDS011;32500;50.620;3.400;2023-08-24T12:11:13;112.53;;;58.95;;
46753;SDS011;32500;50.620;3.400;2023-08-24T12:13:47;113.07;;;59.03;;
46753;SDS011;32500;50.620;3.400;2023-08-24T12:16:17;112.35;;;59.15;;
46753;SDS011;32500;50.620;3.400;2023-08-24T12:18:57;115.28;;;59.45;;
46753;SDS011;32500;50.620;3.400;2023-08-24T12:21:29;112.20;;;58.65;;
46753;SDS011;32500;50.620;3.400;2023-08-24T12:23:55;112.78;;;59.03;;
46753;SDS011;32500;50.620;3.400;2023-08-24T12:26:34;114.78;;;59.13;;
46753;SDS011;32500;50.620;3.400;2023-08-24T12:29:04;116.43;;;59.17;;
46753;SDS011;32500;50.620;3.400;2023-08-24T12:31:31;115.72;;;59.58;;
46753;SDS011;32500;50.620;3.400;2023-08-24T12:34:06;113.22;;;59.25;;
46753;SDS011;32500;50.620;3.400;2023-08-24T12:36:36;113.65;;;58.50;;
46753;SDS011;32500;50.620;3.400;2023-08-24T12:39:04;114.25;;;58.55;;
46753;SDS011;32500;50.620;3.400;2023-08-24T12:41:30;113.00;;;58.72;;
46753;SDS011;32500;50.620;3.400;2023-08-24T12:43:56;112.93;;;58.22;;
46753;SDS011;32500;50.620;3.400;2023-08-24T12:46:22;113.15;;;58.05;;
46753;SDS011;32500;50.620;3.400;2023-08-24T12:48:48;111.88;;;58.42;;
46753;SDS011;32500;50.620;3.400;2023-08-24T12:51:15;111.40;;;58.35;;
46753;SDS011;32500;50.620;3.400;2023-08-24T12:53:41;114.13;;;58.47;;
46753;SDS011;32500;50.620;3.400;2023-08-24T12:56:06;114.30;;;58.80;;
46753;SDS011;32500;50.620;3.400;2023-08-24T12:58:32;114.53;;;58.85;;
46753;SDS011;32500;50.620;3.400;2023-08-24T13:00:58;111.10;;;57.95;;
46753;SDS011;32500;50.620;3.400;2023-08-24T13:03:24;112.78;;;58.92;;
46753;SDS011;32500;50.620;3.400;2023-08-24T13:05:50;112.72;;;57.80;;
46753;SDS011;32500;50.620;3.400;2023-08-24T13:08:15;113.90;;;58.50;;
46753;SDS011;32500;50.620;3.400;2023-08-24T13:10:41;114.38;;;58.80;;
46753;SDS011;32500;50.620;3.400;2023-08-24T13:13:07;114.60;;;58.28;;
46753;SDS011;32500;50.620;3.400;2023-08-24T13:15:33;114.38;;;58.53;;
46753;SDS011;32500;50.620;3.400;2023-08-24T13:17:58;113.57;;;58.28;;
46753;SDS011;32500;50.620;3.400;2023-08-24T13:20:24;112.88;;;58.58;;
46753;SDS011;32500;50.620;3.400;2023-08-24T13:22:50;113.43;;;58.13;;
46753;SDS011;32500;50.620;3.400;2023-08-24T13:25:17;115.28;;;58.55;;
46753;SDS011;32500;50.620;3.400;2023-08-24T13:27:43;116.05;;;58.63;;
46753;SDS011;32500;50.620;3.400;2023-08-24T13:30:09;113.90;;;58.45;;
46753;SDS011;32500;50.620;3.400;2023-08-24T13:32:35;113.25;;;58.92;;
46753;SDS011;32500;50.620;3.400;2023-08-24T13:35:01;115.50;;;58.63;;
46753;SDS011;32500;50.620;3.400;2023-08-24T13:37:27;112.88;;;58.55;;
46753;SDS011;32500;50.620;3.400;2023-08-24T13:39:53;112.88;;;58.05;;
46753;SDS011;32500;50.620;3.400;2023-08-24T13:42:19;116.45;;;59.08;;
46753;SDS011;32500;50.620;3.400;2023-08-24T13:44:45;115.13;;;58.78;;
46753;SDS011;32500;50.620;3.400;2023-08-24T13:47:11;117.10;;;58.92;;
46753;SDS011;32500;50.620;3.400;2023-08-24T13:49:37;112.30;;;58.28;;
46753;SDS011;32500;50.620;3.400;2023-08-24T13:52:02;114.85;;;58.67;;
46753;SDS011;32500;50.620;3.400;2023-08-24T13:54:29;113.55;;;58.35;;
46753;SDS011;32500;50.620;3.400;2023-08-24T13:56:55;112.88;;;58.50;;
46753;SDS011;32500;50.620;3.400;2023-08-24T13:59:21;113.22;;;58.70;;
46753;SDS011;32500;50.620;3.400;2023-08-24T14:01:47;113.55;;;58.17;;
46753;SDS011;32500;50.620;3.400;2023-08-24T14:04:13;114.88;;;58.88;;
46753;SDS011;32500;50.620;3.400;2023-08-24T14:06:38;113.90;;;58.60;;
46753;SDS011;32500;50.620;3.400;2023-08-24T14:09:04;114.50;;;58.58;;
46753;SDS011;32500;50.620;3.400;2023-08-24T14:11:30;116.57;;;58.63;;
46753;SDS011;32500;50.620;3.400;2023-08-24T14:13:57;113.22;;;58.28;;
46753;SDS011;32500;50.620;3.400;2023-08-24T14:16:24;116.78;;;59.15;;
46753;SDS011;32500;50.620;3.400;2023-08-24T14:18:51;113.32;;;58.60;;
46753;SDS011;32500;50.620;3.400;2023-08-24T14:21:17;115.15;;;58.65;;